Terminal Aerodrome Forecast
Issued by NWS

Home | Current Version | Previous Version | Text Only | Print | Product List | Glossary On
Versions: 1 2 3 4 5 6 7 8 9 10 11 12 13 14 15 16 17 18 19 20 21
093
FTUS46 KMTR 282340
TAFSFO
TAF
KSFO 282340Z 2900/3006 30018G21KT P6SM FEW008 FEW180
     FM290400 30015KT P6SM FEW008 FEW180
     FM290900 29010KT P6SM FEW008 FEW180
     FM291600 34007KT P6SM FEW010
     FM291900 30012KT P6SM FEW010
     FM292200 30018KT P6SM FEW010=

USA.gov is the U.S. government's official web portal to all federal, state and local government web resources and services.